Archival Weather

Chicago O'Hare International

Chicago, Illinois (KORD)

Report from: Wednesday, February 16, 2022 8:51 PM CST
Current time: Saturday, February 4, 2023 10:29 PM CST

Current weather
Weather history
Weather forecast

Present weatherRain, mist
Temperature10.0°C (50.0°F)
Wind chill8.8°C (47.8°F)
Dew point7.8°C (46.0°F)
Winds 5 kts (2.6 m/s, 5.8 mph) West (270°)
Visibility5 mi. (8 km)
Clouds Ceiling: Broken clouds 1,600 ft. (488 m)
Overcast 2,400 ft. (732 m)
Altimeter29.79 in.Hg (1009 mB)
Precipitiation0.21 in. (5 mm)
Precip last 3 hours0.21 in. (5 mm)
Relative humidity86 %
Density altitude-295 ft. (-90 m)
Sea-level pressure100.9 kPa (1009 mB, 29.79 in.Hg)
Remarks Automated weather observing station with precipitation discriminator
Pressure rising more quickly
Flight conditions Marginal Visual Meteorological Conditions
Raw dataKORD 170251Z 27005KT 5SM RA BR BKN016 OVC024 10/08 A2979 RMK AO2 WSHFT 0149 SLP089 P0021 60021 T01000078 53004
An unhandled exception has occurred. See browser dev tools for details. Reload 🗙